To NAV CANADA Home Page Login to a new session Search on AWWS site Feedback and Comments Disclaimer Vers la page française équivalente Tips FAQ What's new on the site To the Forecasts and Observations / NOTAM section To "File a Flight Plan" website Publications and other links Update of the User's profile FIC Telephone Numbers My Weather Data Folder Route Weather Data Regional Weather Data Local Weather Data To the Forecasts and Observations / NOTAM section
Request Generated 02/07/2016 at 21:23:10 UTC . Weather information available at that time is displayed.

METAR/TAF

PANGNIRTUNG/NU    (show WxCam)

METAR CYXP 072100Z 23004KT 15SM FEW015 SCT210 M30/M33 A2984 RMK
SC1CI2 -27.2/-30.4/0/15 SNW CVR/HARD PACK LAST STFD OBS/NEXT 081200
SLP110 DENSITY ALT MISG=
METAR CYXP 072000Z 24004KT 15SM FEW015 BKN210 M30/M33 A2982 RMK
SC2CI3 SLP102 DENSITY ALT MISG=
METAR CYXP 071900Z 24003KT 15SM FEW015 BKN210 M29/M33 A2980 RMK
SC2CI4 SLP096 DENSITY ALT MISG=

*** REMARK        : Forecast period has ended; this was the last TAF issued
*** REMARQUE : La période de prévision est échue; ceci était le dernier TAF qui a été émis
TAF CYXP 071838Z 0719/0721 24005KT P6SM FEW015 BKN210
RMK NXT FCST WILL BE ISSUED AT 081345Z=
Your time UTC time
Weather data provided by Environment Canada and NAV CANADA